createdAt,value
2022-10-01T00:01:16.537Z,96581.09
2022-10-01T00:03:43.840Z,96582.72
2022-10-01T00:06:12.112Z,96585.31
2022-10-01T00:08:41.320Z,96573.31
2022-10-01T00:11:10.395Z,96577.69
2022-10-01T00:13:36.972Z,96570.91
2022-10-01T00:16:08.655Z,96588.00
2022-10-01T00:18:37.118Z,96579.59
2022-10-01T00:21:11.762Z,96583.03
2022-10-01T00:23:38.367Z,96581.66
2022-10-01T00:26:13.419Z,96578.53
2022-10-01T00:28:41.082Z,96587.91
2022-10-01T00:31:08.846Z,96577.97
2022-10-01T00:33:36.171Z,96576.34
2022-10-01T00:36:07.691Z,96581.56
2022-10-01T00:38:34.611Z,96571.50
2022-10-01T00:41:01.657Z,96562.34
2022-10-01T00:43:38.811Z,96566.09
2022-10-01T00:46:17.079Z,96558.69
2022-10-01T00:48:58.169Z,96564.91
2022-10-01T00:51:32.594Z,96570.59
2022-10-01T00:54:08.311Z,96578.78
2022-10-01T00:56:35.280Z,96578.78
2022-10-01T00:59:02.418Z,96563.09
2022-10-01T01:01:29.024Z,96571.13
2022-10-01T01:03:56.634Z,96573.88
2022-10-01T01:06:23.177Z,96573.53
2022-10-01T01:08:55.217Z,96577.50
2022-10-01T01:11:33.049Z,96578.47
2022-10-01T01:14:25.659Z,96565.41
2022-10-01T01:16:59.736Z,96567.03
2022-10-01T01:19:44.743Z,96569.03
2022-10-01T01:22:13.989Z,96551.53
2022-10-01T01:24:51.169Z,96561.63
2022-10-01T01:27:23.387Z,96564.81
2022-10-01T01:30:04.556Z,96562.06
2022-10-01T01:32:34.617Z,96565.13
2022-10-01T01:35:05.496Z,96558.94
2022-10-01T01:37:37.998Z,96557.31
2022-10-01T01:40:11.565Z,96545.91
2022-10-01T01:42:41.393Z,96551.88
2022-10-01T01:45:13.606Z,96540.88
2022-10-01T01:47:42.113Z,96543.38
2022-10-01T01:50:11.401Z,96542.13
2022-10-01T01:52:38.396Z,96550.25
2022-10-01T01:55:08.638Z,96545.47
2022-10-01T01:57:44.045Z,96543.22
2022-10-01T02:00:12.690Z,96541.78
2022-10-01T02:02:43.893Z,96532.22
2022-10-01T02:05:16.019Z,96536.81
2022-10-01T02:08:02.626Z,96547.00
2022-10-01T02:10:44.693Z,96548.63
2022-10-01T02:13:45.863Z,96531.06
2022-10-01T02:16:35.395Z,96545.25
2022-10-01T02:19:08.228Z,96529.84
2022-10-01T02:21:50.326Z,96531.56
2022-10-01T02:24:31.371Z,96518.56
2022-10-01T02:27:01.560Z,96526.59
2022-10-01T02:29:29.507Z,96527.06
2022-10-01T02:31:57.200Z,96533.22
2022-10-01T02:34:29.003Z,96536.97
2022-10-01T02:36:57.465Z,96519.31
2022-10-01T02:39:28.486Z,96520.88
2022-10-01T02:41:56.559Z,96520.22
2022-10-01T02:44:31.220Z,96520.81
2022-10-01T02:47:07.734Z,96507.25
2022-10-01T02:49:36.216Z,96504.56
2022-10-01T02:52:34.180Z,96514.59
2022-10-01T02:55:05.176Z,96505.56
2022-10-01T02:57:32.848Z,96518.06
2022-10-01T03:00:09.793Z,96506.22
2022-10-01T03:02:36.424Z,96509.53
2022-10-01T03:05:04.179Z,96517.19
2022-10-01T03:07:34.615Z,96507.59
2022-10-01T03:10:04.752Z,96510.41
2022-10-01T03:12:31.664Z,96504.41
2022-10-01T03:14:58.119Z,96495.13
2022-10-01T03:17:24.739Z,96498.59
2022-10-01T03:19:51.116Z,96508.06
2022-10-01T03:22:22.420Z,96501.22
2022-10-01T03:24:50.093Z,96500.38
2022-10-01T03:27:17.529Z,96506.34
2022-10-01T03:29:44.548Z,96499.97
2022-10-01T03:32:12.070Z,96499.94
2022-10-01T03:34:38.582Z,96490.06
2022-10-01T03:37:04.968Z,96502.41
2022-10-01T03:39:32.688Z,96490.63
2022-10-01T03:41:59.181Z,96500.06
2022-10-01T03:44:25.573Z,96503.81
2022-10-01T03:46:52.070Z,96500.84
2022-10-01T03:49:18.434Z,96500.78
2022-10-01T03:51:45.544Z,96498.00
2022-10-01T03:54:12.753Z,96498.75
2022-10-01T03:56:42.637Z,96491.97
2022-10-01T03:59:10.950Z,96493.19
2022-10-01T04:01:39.316Z,96482.97
2022-10-01T04:04:06.629Z,96481.19
2022-10-01T04:06:33.350Z,96476.63
2022-10-01T04:08:59.840Z,96474.81
2022-10-01T04:11:26.407Z,96475.78
2022-10-01T04:13:53.062Z,96470.56
2022-10-01T04:16:19.668Z,96468.72
2022-10-01T04:18:46.220Z,96472.13
2022-10-01T04:21:12.877Z,96476.50
2022-10-01T04:23:39.362Z,96472.91
2022-10-01T04:26:05.861Z,96468.84
2022-10-01T04:28:32.446Z,96473.16
2022-10-01T04:31:17.692Z,96469.88
2022-10-01T04:33:44.864Z,96472.19
2022-10-01T04:36:12.026Z,96465.75
2022-10-01T04:38:38.512Z,96467.53
2022-10-01T04:41:05.003Z,96461.50
2022-10-01T04:43:31.529Z,96462.47
2022-10-01T04:45:57.986Z,96464.41
2022-10-01T04:48:24.573Z,96452.47
2022-10-01T04:50:51.092Z,96459.44
2022-10-01T04:53:17.546Z,96447.25
2022-10-01T04:55:44.009Z,96450.38
2022-10-01T04:58:10.533Z,96435.34
2022-10-01T05:00:36.958Z,96452.31
2022-10-01T05:03:03.567Z,96450.50
2022-10-01T05:05:32.914Z,96458.94
2022-10-01T05:07:59.485Z,96448.53
2022-10-01T05:10:26.219Z,96458.75
2022-10-01T05:12:52.977Z,96450.13
2022-10-01T05:15:19.800Z,96440.59
2022-10-01T05:17:47.262Z,96463.25
2022-10-01T05:20:19.958Z,96457.72
2022-10-01T05:22:47.378Z,96465.50
2022-10-01T05:25:14.145Z,96469.47
2022-10-01T05:27:40.964Z,96468.16
2022-10-01T05:30:12.365Z,96466.50
2022-10-01T05:32:38.998Z,96464.84
2022-10-01T05:35:07.698Z,96458.09
2022-10-01T05:37:34.947Z,96468.19
2022-10-01T05:40:01.943Z,96469.63
2022-10-01T05:42:28.434Z,96472.97
2022-10-01T05:44:56.053Z,96466.72
2022-10-01T05:47:22.870Z,96471.94
2022-10-01T05:49:49.472Z,96468.47
2022-10-01T05:52:16.427Z,96475.78
2022-10-01T05:54:42.957Z,96477.66
2022-10-01T05:57:09.601Z,96480.19
2022-10-01T05:59:36.237Z,96474.34
2022-10-01T06:02:04.197Z,96476.63
2022-10-01T06:04:31.399Z,96464.28
2022-10-01T06:06:58.097Z,96477.06
2022-10-01T06:09:24.589Z,96462.84
2022-10-01T06:11:51.009Z,96490.09
2022-10-01T06:14:17.510Z,96477.28
2022-10-01T06:16:43.886Z,96487.28
2022-10-01T06:19:10.513Z,96483.75
2022-10-01T06:21:37.328Z,96480.78
2022-10-01T06:24:04.089Z,96479.31
2022-10-01T06:26:31.170Z,96482.06
2022-10-01T06:28:57.677Z,96479.09
2022-10-01T06:31:24.352Z,96479.00
2022-10-01T06:33:50.867Z,96477.06
2022-10-01T06:36:17.443Z,96477.00
2022-10-01T06:38:43.824Z,96479.50
2022-10-01T06:41:10.693Z,96478.56
2022-10-01T06:43:37.202Z,96465.09
2022-10-01T06:46:04.783Z,96478.84
2022-10-01T06:48:32.497Z,96465.63
2022-10-01T06:50:59.666Z,96471.03
2022-10-01T06:53:27.752Z,96464.31
2022-10-01T06:55:54.584Z,96453.50
2022-10-01T06:58:24.395Z,96468.84
2022-10-01T07:00:51.065Z,96463.25
2022-10-01T07:03:20.260Z,96456.81
2022-10-01T07:05:48.069Z,96447.81
2022-10-01T07:08:14.864Z,96455.66
2022-10-01T07:10:41.861Z,96448.41
2022-10-01T07:13:14.270Z,96447.41
2022-10-01T07:15:40.806Z,96450.47
2022-10-01T07:18:09.458Z,96447.16
2022-10-01T07:20:39.718Z,96445.91
2022-10-01T07:23:11.950Z,96456.56
2022-10-01T07:25:40.481Z,96446.22
2022-10-01T07:28:15.917Z,96447.09
2022-10-01T07:30:47.559Z,96448.53
2022-10-01T07:33:18.092Z,96447.41
2022-10-01T07:35:45.156Z,96453.09
2022-10-01T07:38:11.604Z,96434.84
2022-10-01T07:40:38.138Z,96444.38
2022-10-01T07:43:04.924Z,96435.72
2022-10-01T07:45:31.470Z,96428.13
2022-10-01T07:47:59.554Z,96440.06
2022-10-01T07:50:27.783Z,96438.34
2022-10-01T07:52:56.197Z,96432.91
2022-10-01T07:55:26.358Z,96426.09
2022-10-01T07:57:58.056Z,96430.38
2022-10-01T08:00:26.314Z,96420.69
2022-10-01T08:02:56.025Z,96421.81
2022-10-01T08:05:31.412Z,96425.00
2022-10-01T08:07:59.867Z,96417.13
2022-10-01T08:10:26.620Z,96409.75
2022-10-01T08:12:59.797Z,96412.22
2022-10-01T08:15:26.344Z,96410.53
2022-10-01T08:17:52.921Z,96418.66
2022-10-01T08:20:21.450Z,96413.81
2022-10-01T08:22:47.921Z,96403.47
2022-10-01T08:25:14.342Z,96405.91
2022-10-01T08:27:40.910Z,96414.31
2022-10-01T08:30:08.144Z,96413.53
2022-10-01T08:32:34.660Z,96432.66
2022-10-01T08:35:01.260Z,96426.56
2022-10-01T08:37:29.152Z,96421.44
2022-10-01T08:39:56.433Z,96432.78
2022-10-01T08:42:34.170Z,96437.75
2022-10-01T08:45:12.798Z,96433.34
2022-10-01T08:47:43.781Z,96440.19
2022-10-01T08:50:27.986Z,96436.03
2022-10-01T08:53:02.455Z,96428.16
2022-10-01T08:55:36.346Z,96437.81
2022-10-01T08:58:09.956Z,96427.19
2022-10-01T09:00:40.277Z,96436.03
2022-10-01T09:03:11.784Z,96434.75
2022-10-01T09:05:40.970Z,96434.00
2022-10-01T09:08:43.706Z,96441.41
2022-10-01T09:11:31.324Z,96433.31
2022-10-01T09:14:15.881Z,96434.75
2022-10-01T09:16:55.689Z,96435.56
2022-10-01T09:19:35.091Z,96437.75
2022-10-01T09:22:26.147Z,96428.28
2022-10-01T09:25:07.009Z,96423.09
2022-10-01T09:27:34.088Z,96423.41
2022-10-01T09:30:12.185Z,96426.66
2022-10-01T09:32:46.972Z,96408.09
2022-10-01T09:35:33.124Z,96417.50
2022-10-01T09:38:24.249Z,96422.31
2022-10-01T09:40:54.743Z,96426.41
2022-10-01T09:43:28.641Z,96419.66
2022-10-01T09:45:55.269Z,96413.16
2022-10-01T09:48:34.577Z,96426.59
2022-10-01T09:51:08.698Z,96420.84
2022-10-01T09:53:41.257Z,96424.38
2022-10-01T09:56:19.019Z,96413.75
2022-10-01T09:58:54.293Z,96421.09
2022-10-01T10:01:28.417Z,96417.28
2022-10-01T10:03:57.399Z,96423.50
2022-10-01T10:06:29.841Z,96408.25
2022-10-01T10:08:58.402Z,96408.56
2022-10-01T10:11:28.366Z,96399.63
2022-10-01T10:14:00.269Z,96383.94
2022-10-01T10:32:47.158Z,96371.28
2022-10-01T10:35:19.111Z,96376.59
2022-10-01T10:37:49.684Z,96374.94
2022-10-01T10:40:28.434Z,96372.63
2022-10-01T10:42:58.520Z,96361.69
2022-10-01T10:45:33.182Z,96379.44
2022-10-01T10:48:03.847Z,96377.06
2022-10-01T10:50:33.757Z,96372.97
2022-10-01T10:53:11.157Z,96377.78
2022-10-01T10:55:39.097Z,96374.16
2022-10-01T10:58:14.912Z,96378.56
2022-10-01T11:00:48.192Z,96379.81
2022-10-01T11:03:17.433Z,96382.81
2022-10-01T11:05:44.476Z,96387.06
2022-10-01T11:08:23.790Z,96373.50
2022-10-01T11:11:14.454Z,96365.41
2022-10-01T11:13:40.939Z,96368.91
2022-10-01T11:16:26.126Z,96355.22
2022-10-01T11:19:01.607Z,96356.69
2022-10-01T11:21:48.360Z,96356.88
2022-10-01T11:24:36.696Z,96342.66
2022-10-01T11:27:12.309Z,96327.97
2022-10-01T11:30:05.480Z,96326.00
2022-10-01T11:33:00.591Z,96326.56
2022-10-01T11:35:50.626Z,96314.09
2022-10-01T11:38:35.199Z,96312.06
2022-10-01T11:41:24.864Z,96297.25
2022-10-01T11:43:55.580Z,96289.25
2022-10-01T11:47:09.525Z,96302.22
2022-10-01T11:50:15.954Z,96277.72
2022-10-01T11:52:56.619Z,96280.06
2022-10-01T11:55:57.226Z,96276.72
2022-10-01T11:58:48.541Z,96280.50
2022-10-01T12:01:18.761Z,96290.13
2022-10-01T12:03:54.338Z,96302.31
2022-10-01T12:06:28.414Z,96308.16
2022-10-01T12:09:11.919Z,96297.53
2022-10-01T12:11:46.489Z,96303.78
2022-10-01T12:14:19.783Z,96314.91
2022-10-01T12:16:52.564Z,96308.69
2022-10-01T12:19:23.156Z,96315.28
2022-10-01T12:22:13.533Z,96314.34
2022-10-01T12:24:42.919Z,96326.03
2022-10-01T12:27:19.943Z,96321.03
2022-10-01T12:29:52.513Z,96325.22
2022-10-01T12:32:53.144Z,96325.88
2022-10-01T12:36:04.356Z,96337.34
2022-10-01T12:38:50.409Z,96334.97
2022-10-01T12:41:26.029Z,96328.63
2022-10-01T12:44:44.506Z,96327.84
2022-10-01T12:47:21.695Z,96337.34
2022-10-01T12:50:17.522Z,96338.34
2022-10-01T12:52:59.450Z,96346.94
2022-10-01T12:55:30.695Z,96340.88
2022-10-01T12:58:12.852Z,96351.44
2022-10-01T13:00:53.293Z,96341.00
2022-10-01T13:03:38.270Z,96340.31
2022-10-01T13:06:26.976Z,96354.13
2022-10-01T13:09:12.379Z,96355.75
2022-10-01T13:12:03.038Z,96354.06
2022-10-01T13:14:33.075Z,96367.88
2022-10-01T13:17:20.805Z,96362.22
2022-10-01T13:20:02.984Z,96359.84
2022-10-01T13:22:45.386Z,96363.63
2022-10-01T13:25:27.052Z,96362.03
2022-10-01T13:27:58.341Z,96362.16
2022-10-01T13:30:28.887Z,96356.75
2022-10-01T13:32:58.332Z,96360.16
2022-10-01T13:35:36.487Z,96361.91
2022-10-01T13:38:17.077Z,96350.56
2022-10-01T13:40:44.481Z,96354.16
2022-10-01T13:43:20.402Z,96354.78
2022-10-01T13:45:49.668Z,96355.63
2022-10-01T13:48:22.039Z,96361.94
2022-10-01T13:51:03.505Z,96366.00
2022-10-01T13:53:33.430Z,96370.16
2022-10-01T13:56:00.577Z,96383.06
2022-10-01T13:58:30.049Z,96382.09
2022-10-01T14:00:59.652Z,96376.81
2022-10-01T14:03:30.143Z,96376.81
2022-10-01T14:05:58.687Z,96394.38
2022-10-01T14:08:39.141Z,96388.47
2022-10-01T14:11:34.682Z,96390.13
2022-10-01T14:14:30.952Z,96383.34
2022-10-01T14:16:58.436Z,96395.16
2022-10-01T14:19:27.390Z,96384.56
2022-10-01T14:22:26.313Z,96385.69
2022-10-01T14:25:11.524Z,96374.00
2022-10-01T14:27:51.352Z,96378.19
2022-10-01T14:30:24.390Z,96368.03
2022-10-01T14:33:09.832Z,96376.97
2022-10-01T14:35:56.581Z,96375.41
2022-10-01T14:38:23.240Z,96359.28
2022-10-01T14:40:50.431Z,96361.00
2022-10-01T14:43:31.309Z,96360.16
2022-10-01T14:45:59.386Z,96366.63
2022-10-01T14:48:29.065Z,96354.28
2022-10-01T14:50:58.715Z,96367.97
2022-10-01T14:53:32.243Z,96365.66
2022-10-01T14:56:04.860Z,96361.38
2022-10-01T14:58:39.312Z,96375.03
2022-10-01T15:01:06.696Z,96369.72
2022-10-01T15:03:38.609Z,96369.09
2022-10-01T15:06:12.257Z,96363.97
2022-10-01T15:08:41.584Z,96374.19
2022-10-01T15:11:16.242Z,96372.13
2022-10-01T15:13:44.899Z,96372.25
2022-10-01T15:16:13.901Z,96377.94
2022-10-01T15:19:01.474Z,96377.69
2022-10-01T15:21:39.572Z,96373.63
2022-10-01T15:24:16.319Z,96378.25
2022-10-01T15:26:45.731Z,96374.38
2022-10-01T15:29:14.559Z,96374.38
2022-10-01T15:31:41.837Z,96370.69
2022-10-01T15:34:15.217Z,96375.44
2022-10-01T15:36:43.002Z,96373.34
2022-10-01T15:39:21.273Z,96368.78
2022-10-01T15:41:52.512Z,96362.59
2022-10-01T15:44:39.245Z,96364.44
2022-10-01T15:47:33.032Z,96370.53
2022-10-01T15:50:06.776Z,96376.63
2022-10-01T15:52:50.647Z,96374.38
2022-10-01T15:55:49.443Z,96384.16
2022-10-01T15:58:31.449Z,96396.53
2022-10-01T16:01:09.337Z,96398.03
2022-10-01T16:04:01.840Z,96402.50
2022-10-01T16:06:35.974Z,96396.69
2022-10-01T16:09:13.209Z,96390.16
2022-10-01T16:11:55.251Z,96394.88
2022-10-01T16:14:23.481Z,96400.06
2022-10-01T16:16:50.715Z,96393.28
2022-10-01T16:19:30.348Z,96407.53
2022-10-01T16:22:22.709Z,96412.97
2022-10-01T16:24:55.007Z,96418.22
2022-10-01T16:27:25.327Z,96423.16
2022-10-01T16:30:09.078Z,96422.41
2022-10-01T16:32:35.752Z,96427.19
2022-10-01T16:35:22.233Z,96427.75
2022-10-01T16:37:50.813Z,96443.38
2022-10-01T16:40:29.895Z,96437.53
2022-10-01T16:42:58.311Z,96440.66
2022-10-01T16:45:27.796Z,96448.31
2022-10-01T16:47:58.020Z,96444.09
2022-10-01T16:50:25.159Z,96449.34
2022-10-01T16:52:53.371Z,96456.09
2022-10-01T16:55:31.304Z,96466.56
2022-10-01T16:57:58.161Z,96467.44
2022-10-01T17:00:26.227Z,96469.81
2022-10-01T17:02:54.709Z,96471.91
2022-10-01T17:05:32.829Z,96468.97
2022-10-01T17:08:00.951Z,96461.06
2022-10-01T17:10:33.843Z,96473.38
2022-10-01T17:13:01.979Z,96472.31
2022-10-01T17:15:28.461Z,96469.56
2022-10-01T17:17:56.911Z,96494.72
2022-10-01T17:20:26.429Z,96503.22
2022-10-01T17:22:52.937Z,96501.31
2022-10-01T17:25:22.381Z,96506.69
2022-10-01T17:27:49.231Z,96516.66
2022-10-01T17:30:16.504Z,96518.38
2022-10-01T17:32:43.354Z,96519.50
2022-10-01T17:35:12.455Z,96511.22
2022-10-01T17:37:39.783Z,96522.97
2022-10-01T17:40:07.989Z,96528.47
2022-10-01T17:42:35.606Z,96531.56
2022-10-01T17:45:05.674Z,96536.84
2022-10-01T17:47:32.245Z,96543.44
2022-10-01T17:49:58.671Z,96550.19
2022-10-01T17:52:25.150Z,96554.78
2022-10-01T17:54:51.621Z,96561.41
2022-10-01T17:57:18.381Z,96548.31
2022-10-01T17:59:44.800Z,96553.66
2022-10-01T18:02:36.683Z,96560.84
2022-10-01T18:04:59.904Z,96567.09
2022-10-01T18:07:27.028Z,96566.44
2022-10-01T18:09:53.895Z,96571.28
2022-10-01T18:12:20.713Z,96572.13
2022-10-01T18:14:47.682Z,96572.75
2022-10-01T18:17:14.200Z,96574.81
2022-10-01T18:19:56.056Z,96583.94
2022-10-01T18:22:22.598Z,96575.47
2022-10-01T18:24:48.977Z,96563.69
2022-10-01T18:27:15.550Z,96561.59
2022-10-01T18:29:42.000Z,96571.59
2022-10-01T18:32:23.375Z,96567.03
2022-10-01T18:35:00.501Z,96574.34
2022-10-01T18:37:51.304Z,96585.72
2022-10-01T18:40:36.693Z,96591.03
2022-10-01T18:43:15.760Z,96586.44
2022-10-01T18:46:20.600Z,96585.28
2022-10-01T18:49:19.150Z,96594.81
2022-10-01T18:51:57.663Z,96590.09
2022-10-01T18:54:48.784Z,96594.22
2022-10-01T18:57:41.844Z,96601.53
2022-10-01T19:00:10.978Z,96609.38
2022-10-01T19:03:05.422Z,96608.97
2022-10-01T19:05:47.262Z,96611.31
2022-10-01T19:08:29.294Z,96605.31
2022-10-01T19:11:08.376Z,96615.28
2022-10-01T19:14:16.543Z,96613.28
2022-10-01T19:17:08.796Z,96624.44
2022-10-01T19:20:14.945Z,96629.53
2022-10-01T19:23:18.656Z,96641.03
2022-10-01T19:26:03.304Z,96629.47
2022-10-01T19:29:06.743Z,96642.56
2022-10-01T19:31:45.899Z,96640.03
2022-10-01T19:34:38.706Z,96650.56
2022-10-01T19:37:12.767Z,96650.88
2022-10-01T19:39:42.959Z,96645.56
2022-10-01T19:42:33.147Z,96650.34
2022-10-01T19:45:13.218Z,96650.03
2022-10-01T19:47:46.829Z,96648.06
2022-10-01T19:50:24.927Z,96645.47
2022-10-01T19:52:55.565Z,96658.00
2022-10-01T19:55:23.724Z,96660.75
2022-10-01T19:57:50.543Z,96669.25
2022-10-01T20:00:20.095Z,96673.69
2022-10-01T20:02:53.944Z,96679.19
2022-10-01T20:05:38.024Z,96681.50
2022-10-01T20:08:27.602Z,96683.88
2022-10-01T20:10:58.012Z,96688.31
2022-10-01T20:13:49.125Z,96688.94
2022-10-01T20:16:27.155Z,96704.88
2022-10-01T20:19:04.877Z,96717.19
2022-10-01T20:21:43.265Z,96707.19
2022-10-01T20:24:49.962Z,96705.84
2022-10-01T20:27:31.536Z,96721.59
2022-10-01T20:30:11.917Z,96724.47
2022-10-01T20:33:24.030Z,96725.13
2022-10-01T20:36:02.141Z,96742.72
2022-10-01T20:38:43.674Z,96740.03
2022-10-01T20:41:15.137Z,96744.28
2022-10-01T20:43:59.526Z,96746.84
2022-10-01T20:46:47.145Z,96754.09
2022-10-01T20:49:31.992Z,96751.59
2022-10-01T20:52:01.046Z,96754.03
2022-10-01T20:54:34.056Z,96751.88
2022-10-01T20:57:17.639Z,96764.75
2022-10-01T20:59:51.466Z,96756.78
2022-10-01T21:02:34.945Z,96761.50
2022-10-01T21:05:33.299Z,96760.63
2022-10-01T21:08:05.142Z,96761.59
2022-10-01T21:10:50.466Z,96768.13
2022-10-01T21:13:41.334Z,96757.75
2022-10-01T21:16:45.177Z,96764.75
2022-10-01T21:19:27.082Z,96774.88
2022-10-01T21:22:12.534Z,96779.09
2022-10-01T21:25:06.427Z,96783.31
2022-10-01T21:27:48.271Z,96781.81
2022-10-01T21:30:17.488Z,96790.88
2022-10-01T21:33:11.924Z,96804.91
2022-10-01T21:35:47.381Z,96804.38
2022-10-01T21:38:39.574Z,96799.47
2022-10-01T21:41:18.673Z,96809.44
2022-10-01T21:44:12.122Z,96816.84
2022-10-01T21:47:03.473Z,96830.56
2022-10-01T21:49:57.554Z,96823.47
2022-10-01T21:52:26.860Z,96830.88
2022-10-01T21:55:00.913Z,96825.06
2022-10-01T21:58:02.046Z,96834.56
2022-10-01T22:17:47.357Z,96874.97
2022-10-01T22:20:16.935Z,96880.16
2022-10-01T22:22:45.709Z,96873.97
2022-10-01T22:25:13.733Z,96882.81
2022-10-01T22:27:48.683Z,96892.53
2022-10-01T22:30:21.370Z,96908.72
2022-10-01T22:32:55.540Z,96907.22
2022-10-01T22:35:28.391Z,96916.47
2022-10-01T22:38:09.809Z,96925.88
2022-10-01T22:40:42.063Z,96927.28
2022-10-01T22:43:11.613Z,96931.53
2022-10-01T22:46:04.243Z,96939.28
2022-10-01T22:49:11.007Z,96942.03
2022-10-01T22:52:09.568Z,96945.56
2022-10-01T22:55:16.894Z,96940.91
2022-10-01T22:58:12.414Z,96943.31
2022-10-01T23:01:08.624Z,96943.81
2022-10-01T23:03:35.384Z,96956.06
2022-10-01T23:06:09.860Z,96943.00
2022-10-01T23:08:49.663Z,96941.56
2022-10-01T23:11:24.983Z,96942.50
2022-10-01T23:14:06.622Z,96952.72
2022-10-01T23:16:42.277Z,96949.00
2022-10-01T23:19:27.947Z,96947.31
2022-10-01T23:22:06.668Z,96952.81
2022-10-01T23:24:53.116Z,96956.22
2022-10-01T23:27:32.450Z,96957.75
2022-10-01T23:30:09.877Z,96955.44
2022-10-01T23:33:00.501Z,96969.84
2022-10-01T23:35:42.805Z,96962.06
2022-10-01T23:38:24.229Z,96974.16
2022-10-01T23:40:55.620Z,96980.31
2022-10-01T23:43:33.214Z,96986.91
2022-10-01T23:46:11.386Z,96982.38
2022-10-01T23:48:59.721Z,96979.22
2022-10-01T23:51:47.787Z,96968.91
2022-10-01T23:54:36.047Z,96977.53
2022-10-01T23:57:21.072Z,96985.09
2022-10-01T23:59:57.384Z,96995.06
